createdAt,value
2022-09-02T00:01:00.623Z,43.10
2022-09-02T00:03:48.113Z,42.89
2022-09-02T00:06:34.515Z,42.89
2022-09-02T00:09:23.780Z,40.90
2022-09-02T00:12:11.127Z,42.39
2022-09-02T00:14:57.373Z,42.10
2022-09-02T00:17:43.681Z,40.82
2022-09-02T00:20:31.008Z,40.33
2022-09-02T00:23:17.365Z,39.58
2022-09-02T00:26:04.254Z,40.84
2022-09-02T00:28:53.328Z,41.96
2022-09-02T00:31:45.549Z,41.32
2022-09-02T00:34:32.105Z,41.03
2022-09-02T00:37:18.454Z,41.87
2022-09-02T00:40:06.284Z,42.05
2022-09-02T00:42:52.942Z,39.38
2022-09-02T00:45:39.546Z,40.04
2022-09-02T00:48:27.350Z,42.68
2022-09-02T00:51:14.531Z,38.76
2022-09-02T00:54:01.844Z,39.04
2022-09-02T00:56:48.071Z,40.12
2022-09-02T00:59:47.159Z,40.64
2022-09-02T01:02:34.567Z,41.29
2022-09-02T01:05:23.446Z,41.37
2022-09-02T01:08:09.898Z,40.37
2022-09-02T01:10:56.881Z,40.77
2022-09-02T01:13:43.726Z,40.67
2022-09-02T01:16:38.500Z,39.62
2022-09-02T01:19:39.008Z,40.15
2022-09-02T01:22:30.664Z,39.25
2022-09-02T01:25:23.306Z,37.85
2022-09-02T01:28:12.743Z,39.80
2022-09-02T01:30:58.823Z,39.99
2022-09-02T01:33:45.437Z,39.79
2022-09-02T01:36:31.557Z,40.21
2022-09-02T01:39:19.815Z,38.56
2022-09-02T01:42:06.413Z,39.06
2022-09-02T01:44:53.137Z,38.79
2022-09-02T01:47:39.718Z,38.44
2022-09-02T01:50:26.296Z,39.29
2022-09-02T01:53:12.692Z,39.16
2022-09-02T01:55:59.077Z,38.47
2022-09-02T01:58:47.379Z,38.31
2022-09-02T02:01:35.499Z,39.28
2022-09-02T02:04:24.802Z,38.35
2022-09-02T02:07:14.433Z,40.63
2022-09-02T02:10:00.746Z,40.39
2022-09-02T02:12:47.371Z,39.34
2022-09-02T02:18:18.729Z,39.94
2022-09-02T02:21:05.410Z,41.06
2022-09-02T02:23:51.986Z,40.78
2022-09-02T02:26:38.238Z,40.21
2022-09-02T02:29:24.678Z,41.16
2022-09-02T02:32:11.627Z,40.46
2022-09-02T02:34:59.229Z,41.58
2022-09-02T02:37:49.224Z,40.36
2022-09-02T02:40:36.206Z,40.74
2022-09-02T02:43:25.094Z,41.80
2022-09-02T02:46:12.117Z,41.24
2022-09-02T02:49:01.957Z,41.03
2022-09-02T02:51:48.694Z,40.79
2022-09-02T02:54:35.382Z,40.30
2022-09-02T02:57:22.352Z,40.71
2022-09-02T03:00:20.952Z,43.16
2022-09-02T03:03:10.271Z,42.32
2022-09-02T03:05:56.605Z,41.86
2022-09-02T03:08:44.015Z,42.04
2022-09-02T03:11:30.798Z,41.71
2022-09-02T03:14:19.237Z,40.82
2022-09-02T03:17:06.928Z,40.48
2022-09-02T03:19:54.238Z,40.21
2022-09-02T03:22:40.930Z,39.50
2022-09-02T03:25:35.418Z,40.67
2022-09-02T03:28:22.662Z,42.01
2022-09-02T03:31:15.500Z,41.76
2022-09-02T03:34:02.143Z,40.60
2022-09-02T03:36:48.522Z,38.92
2022-09-02T03:39:36.758Z,41.95
2022-09-02T03:42:23.431Z,41.91
2022-09-02T03:45:11.134Z,40.52
2022-09-02T03:47:58.714Z,42.23
2022-09-02T03:50:47.442Z,42.27
2022-09-02T03:53:35.077Z,42.77
2022-09-02T03:56:22.581Z,42.78
2022-09-02T03:59:09.201Z,46.16
2022-09-02T04:01:55.719Z,43.40
2022-09-02T04:04:42.694Z,44.02
2022-09-02T04:07:28.969Z,44.45
2022-09-02T04:10:15.881Z,49.76
2022-09-02T04:13:02.176Z,42.63
2022-09-02T04:15:49.717Z,43.69
2022-09-02T04:18:36.510Z,43.81
2022-09-02T04:21:25.369Z,47.35
2022-09-02T04:24:11.922Z,45.93
2022-09-02T04:27:03.910Z,45.13
2022-09-02T04:29:51.575Z,46.15
2022-09-02T04:32:40.844Z,44.30
2022-09-02T04:35:27.944Z,45.39
2022-09-02T04:38:14.247Z,43.31
2022-09-02T04:41:01.347Z,43.66
2022-09-02T04:43:48.008Z,43.99
2022-09-02T04:46:34.979Z,43.71
2022-09-02T04:49:22.044Z,45.89
2022-09-02T04:52:10.577Z,50.85
2022-09-02T04:54:57.576Z,46.83
2022-09-02T04:57:43.809Z,48.21
2022-09-02T05:00:30.229Z,46.80
2022-09-02T05:03:17.110Z,47.52
2022-09-02T05:06:07.731Z,49.49
2022-09-02T05:08:59.628Z,47.54
2022-09-02T05:11:48.109Z,46.07
2022-09-02T05:14:34.585Z,48.88
2022-09-02T05:17:21.855Z,48.26
2022-09-02T05:20:09.612Z,48.29
2022-09-02T05:22:56.485Z,44.73
2022-09-02T05:25:43.013Z,46.94
2022-09-02T05:28:29.578Z,49.42
2022-09-02T05:31:17.857Z,46.44
2022-09-02T05:34:04.756Z,44.72
2022-09-02T05:36:51.221Z,45.21
2022-09-02T05:39:37.429Z,46.02
2022-09-02T05:42:24.505Z,45.92
2022-09-02T05:45:11.701Z,44.16
2022-09-02T05:48:22.684Z,45.84
2022-09-02T05:51:09.649Z,44.60
2022-09-02T05:53:57.722Z,43.75
2022-09-02T05:56:46.465Z,42.77
2022-09-02T05:59:39.089Z,43.84
2022-09-02T06:02:26.038Z,43.32
2022-09-02T06:05:12.825Z,43.96
2022-09-02T06:08:00.052Z,44.49
2022-09-02T06:10:46.528Z,43.43
2022-09-02T06:13:36.066Z,42.92
2022-09-02T06:16:23.863Z,42.54
2022-09-02T06:19:11.149Z,43.37
2022-09-02T06:21:59.963Z,43.99
2022-09-02T06:24:46.001Z,42.93
2022-09-02T06:27:33.598Z,42.12
2022-09-02T06:30:20.430Z,43.69
2022-09-02T06:33:06.869Z,43.20
2022-09-02T08:07:24.360Z,40.99
2022-09-02T08:10:13.004Z,40.36
2022-09-02T08:13:02.853Z,40.55
2022-09-02T08:15:50.885Z,40.67
2022-09-02T08:18:37.074Z,39.69
2022-09-02T08:21:24.679Z,39.81
2022-09-02T08:24:10.788Z,39.76
2022-09-02T08:26:57.375Z,40.47
2022-09-02T08:29:43.694Z,40.56
2022-09-02T08:32:32.959Z,38.35
2022-09-02T08:35:19.729Z,39.58
2022-09-02T08:38:06.071Z,42.01
2022-09-02T08:40:52.380Z,40.76
2022-09-02T08:43:43.658Z,40.82
2022-09-02T08:46:32.983Z,41.45
2022-09-02T08:49:46.717Z,41.21
2022-09-02T08:53:10.555Z,41.56
2022-09-02T08:55:59.066Z,41.15
2022-09-02T08:58:50.013Z,40.90
2022-09-02T09:01:42.279Z,42.01
2022-09-02T09:04:44.606Z,38.35
2022-09-02T09:07:46.012Z,38.68
2022-09-02T09:10:47.321Z,38.78
2022-09-02T09:14:11.145Z,37.76
2022-09-02T09:17:31.559Z,39.46
2022-09-02T09:20:20.556Z,39.44
2022-09-02T09:23:34.229Z,39.65
2022-09-02T09:26:27.643Z,39.48
2022-09-02T09:29:13.845Z,37.55
2022-09-02T09:32:01.323Z,38.99
2022-09-02T09:35:02.637Z,36.66
2022-09-02T09:37:54.133Z,39.73
2022-09-02T09:40:40.540Z,37.83
2022-09-02T09:43:30.113Z,36.17
2022-09-02T09:46:22.448Z,36.14
2022-09-02T09:49:08.993Z,34.23
2022-09-02T09:51:57.636Z,33.90
2022-09-02T09:54:44.393Z,35.46
2022-09-02T09:57:35.567Z,34.41
2022-09-02T10:00:32.361Z,32.92
2022-09-02T10:03:23.483Z,36.42
2022-09-02T10:06:37.018Z,37.33
2022-09-02T10:09:31.761Z,38.31
2022-09-02T10:12:32.636Z,38.26
2022-09-02T10:15:42.456Z,37.07
2022-09-02T10:18:46.145Z,37.04
2022-09-02T10:21:45.237Z,36.18
2022-09-02T10:25:11.024Z,39.54
2022-09-02T10:28:07.608Z,39.41
2022-09-02T10:31:16.837Z,39.07
2022-09-02T10:34:03.906Z,39.36
2022-09-02T10:37:11.936Z,39.93
2022-09-02T10:40:17.459Z,40.95
2022-09-02T10:43:08.445Z,38.74
2022-09-02T10:45:58.643Z,36.07
2022-09-02T10:49:03.532Z,35.62
2022-09-02T10:52:01.709Z,37.21
2022-09-02T10:54:53.530Z,36.67
2022-09-02T10:57:51.650Z,36.85
2022-09-02T11:00:41.080Z,36.05
2022-09-02T11:04:02.538Z,37.39
2022-09-02T11:07:02.533Z,37.74
2022-09-02T11:09:54.643Z,36.76
2022-09-02T11:12:42.202Z,37.90
2022-09-02T11:15:45.910Z,37.47
2022-09-02T11:18:44.851Z,37.05
2022-09-02T11:21:43.090Z,38.04
2022-09-02T11:24:43.273Z,35.51
2022-09-02T11:28:20.994Z,35.08
2022-09-02T11:31:19.398Z,34.51
2022-09-02T11:34:41.093Z,33.68
2022-09-02T11:37:34.758Z,34.42
2022-09-02T11:40:35.152Z,35.92
2022-09-02T11:43:45.544Z,33.69
2022-09-02T11:46:39.866Z,31.56
2022-09-02T11:49:34.206Z,34.31
2022-09-02T11:52:38.181Z,30.85
2022-09-02T11:55:34.450Z,31.02
2022-09-02T11:58:39.160Z,32.50
2022-09-02T12:01:43.865Z,33.07
2022-09-02T12:07:50.159Z,30.89
2022-09-02T12:10:46.876Z,30.41
2022-09-02T12:13:38.094Z,34.87
2022-09-02T12:16:30.791Z,33.95
2022-09-02T12:19:25.167Z,32.83
2022-09-02T12:22:17.972Z,30.94
2022-09-02T12:25:26.902Z,32.38
2022-09-02T12:28:27.963Z,33.89
2022-09-02T12:31:16.753Z,33.49
2022-09-02T12:34:22.988Z,32.23
2022-09-02T12:37:09.064Z,32.22
2022-09-02T12:39:58.540Z,33.27
2022-09-02T12:42:46.720Z,32.63
2022-09-02T12:45:41.283Z,32.46
2022-09-02T12:48:40.658Z,32.18
2022-09-02T12:51:53.338Z,34.21
2022-09-02T12:54:39.637Z,32.30
2022-09-02T12:57:39.552Z,33.98
2022-09-02T13:00:34.120Z,34.36
2022-09-02T13:03:32.928Z,34.49
2022-09-02T13:06:40.345Z,35.37
2022-09-02T13:09:47.994Z,34.61
2022-09-02T13:13:02.193Z,35.07
2022-09-02T13:16:07.473Z,34.51
2022-09-02T13:19:07.544Z,33.32
2022-09-02T13:22:32.396Z,32.80
2022-09-02T13:26:07.845Z,34.02
2022-09-02T13:29:06.503Z,33.73
2022-09-02T13:32:15.742Z,33.17
2022-09-02T13:35:05.825Z,33.81
2022-09-02T13:37:59.771Z,33.67
2022-09-02T13:40:46.511Z,32.91
2022-09-02T13:43:32.692Z,32.59
2022-09-02T13:46:18.987Z,32.61
2022-09-02T13:49:05.995Z,32.49
2022-09-02T13:51:54.620Z,30.70
2022-09-02T13:54:44.865Z,32.04
2022-09-02T13:57:31.841Z,30.81
2022-09-02T14:00:26.979Z,31.40
2022-09-02T14:03:17.824Z,30.45
2022-09-02T14:06:08.083Z,31.76
2022-09-02T14:08:59.747Z,32.26
2022-09-02T14:11:46.556Z,33.82
2022-09-02T14:14:33.602Z,34.51
2022-09-02T14:17:24.938Z,34.46
2022-09-02T14:20:19.207Z,35.59
2022-09-02T14:23:05.319Z,35.18
2022-09-02T14:25:55.410Z,35.19
2022-09-02T14:28:41.737Z,35.32
2022-09-02T14:31:30.972Z,34.44
2022-09-02T14:34:36.660Z,33.09
2022-09-02T14:37:24.127Z,33.51
2022-09-02T14:40:12.694Z,34.39
2022-09-02T14:42:59.765Z,35.16
2022-09-02T14:45:47.934Z,36.10
2022-09-02T14:48:38.959Z,36.01
2022-09-02T14:51:31.802Z,35.94
2022-09-02T14:54:41.167Z,36.56
2022-09-02T14:57:35.938Z,37.86
2022-09-02T15:00:22.990Z,36.71
2022-09-02T15:03:14.924Z,35.28
2022-09-02T15:06:01.143Z,35.87
2022-09-02T15:08:47.032Z,37.16
2022-09-02T15:11:33.289Z,37.61
2022-09-02T15:14:19.583Z,36.08
2022-09-02T15:17:09.616Z,36.59
2022-09-02T15:19:56.596Z,34.73
2022-09-02T15:22:43.396Z,35.12
2022-09-02T15:25:29.639Z,36.13
2022-09-02T15:28:16.017Z,35.11
2022-09-02T15:31:02.802Z,35.23
2022-09-02T15:33:51.720Z,35.01
2022-09-02T15:36:38.186Z,36.03
2022-09-02T15:39:26.023Z,35.49
2022-09-02T15:42:12.044Z,36.50
2022-09-02T15:44:58.690Z,38.50
2022-09-02T15:47:44.904Z,38.01
2022-09-02T15:50:33.974Z,38.77
2022-09-02T15:53:20.420Z,38.09
2022-09-02T15:56:19.870Z,38.82
2022-09-02T15:59:11.767Z,39.23
2022-09-02T16:02:02.362Z,39.26
2022-09-02T16:04:49.243Z,40.33
2022-09-02T16:07:35.718Z,41.82
2022-09-02T16:10:22.001Z,44.56
2022-09-02T16:13:08.418Z,44.80
2022-09-02T16:16:01.118Z,44.47
2022-09-02T16:18:52.510Z,43.61
2022-09-02T16:21:41.101Z,44.31
2022-09-02T16:24:27.326Z,47.10
2022-09-02T16:27:14.177Z,47.26
2022-09-02T16:30:00.527Z,46.95
2022-09-02T16:32:47.742Z,46.54
2022-09-02T16:35:33.955Z,47.23
2022-09-02T16:38:25.081Z,46.31
2022-09-02T16:41:23.398Z,47.90
2022-09-02T16:44:11.884Z,46.56
2022-09-02T16:46:58.104Z,48.48
2022-09-02T16:49:46.160Z,48.27
2022-09-02T16:52:34.935Z,48.33
2022-09-02T16:55:21.541Z,48.66
2022-09-02T16:58:07.461Z,47.67
2022-09-02T17:00:53.841Z,48.54
2022-09-02T17:03:40.693Z,48.16
2022-09-02T17:06:29.150Z,48.69
2022-09-02T17:09:16.392Z,49.02
2022-09-02T17:12:03.075Z,48.86
2022-09-02T17:14:49.029Z,49.97
2022-09-02T17:17:35.340Z,49.73
2022-09-02T17:20:22.639Z,49.50
2022-09-02T17:23:08.969Z,49.60
2022-09-02T17:25:55.279Z,49.99
2022-09-02T17:28:54.644Z,51.49
2022-09-02T17:31:40.725Z,52.29
2022-09-02T17:34:26.958Z,52.20
2022-09-02T17:37:13.326Z,52.89
2022-09-02T17:40:00.722Z,54.04
2022-09-02T17:42:46.784Z,54.21
2022-09-02T17:45:36.624Z,54.05
2022-09-02T17:48:37.222Z,54.35
2022-09-02T17:51:25.874Z,54.43
2022-09-02T17:54:12.695Z,54.25
2022-09-02T17:57:17.380Z,57.73
2022-09-02T18:00:22.374Z,57.14
2022-09-02T18:03:28.572Z,53.60
2022-09-02T18:06:25.059Z,55.90
2022-09-02T18:09:12.637Z,57.52
2022-09-02T18:12:01.080Z,55.25
2022-09-02T18:14:55.870Z,56.01
2022-09-02T18:17:48.507Z,57.16
2022-09-02T18:20:48.630Z,57.25
2022-09-02T18:23:53.431Z,56.84
2022-09-02T18:26:56.728Z,56.44
2022-09-02T18:29:53.230Z,56.80
2022-09-02T18:33:21.365Z,55.84
2022-09-02T18:36:19.319Z,55.83
2022-09-02T18:39:35.786Z,54.75
2022-09-02T18:42:38.810Z,56.93
2022-09-02T18:45:29.386Z,58.12
2022-09-02T18:48:37.426Z,57.47
2022-09-02T18:51:35.475Z,56.80
2022-09-02T18:54:27.435Z,56.48
2022-09-02T18:57:15.712Z,57.62
2022-09-02T19:00:09.091Z,56.46
2022-09-02T19:03:01.563Z,56.89
2022-09-02T19:05:49.748Z,58.00
2022-09-02T19:08:38.255Z,57.05
2022-09-02T19:11:27.293Z,58.78
2022-09-02T19:14:28.096Z,58.50
2022-09-02T19:17:14.891Z,57.31
2022-09-02T19:20:01.140Z,56.12
2022-09-02T19:22:51.018Z,57.76
2022-09-02T19:25:39.702Z,59.58
2022-09-02T19:28:26.581Z,57.94
2022-09-02T19:31:22.356Z,59.63
2022-09-02T19:34:11.449Z,59.51
2022-09-02T19:37:01.868Z,61.70
2022-09-02T19:39:51.283Z,60.94
2022-09-02T19:42:40.390Z,60.88
2022-09-02T19:45:29.305Z,60.54
2022-09-02T19:48:16.098Z,62.58
2022-09-02T19:51:03.217Z,63.53
2022-09-02T19:53:49.852Z,62.38
2022-09-02T19:56:36.852Z,63.20
2022-09-02T19:59:23.687Z,63.41
2022-09-02T20:02:10.198Z,63.40
2022-09-02T20:04:56.883Z,63.47
2022-09-02T20:07:42.742Z,62.95
2022-09-02T20:10:30.812Z,62.14
2022-09-02T20:13:17.934Z,64.81
2022-09-02T20:16:06.277Z,65.16
2022-09-02T20:18:53.603Z,63.95
2022-09-02T20:21:44.001Z,62.33
2022-09-02T20:24:33.974Z,61.71
2022-09-02T20:27:34.369Z,67.46
2022-09-02T20:30:21.183Z,66.49
2022-09-02T20:33:22.319Z,65.09
2022-09-02T20:36:39.470Z,65.10
2022-09-02T20:39:47.947Z,67.89
2022-09-02T20:43:00.741Z,66.72
2022-09-02T20:46:09.192Z,67.16
2022-09-02T20:49:01.460Z,66.44
2022-09-02T20:51:53.351Z,67.06
2022-09-02T20:54:48.600Z,68.01
2022-09-02T20:57:48.993Z,69.39
2022-09-02T21:00:35.299Z,70.28
2022-09-02T21:03:25.831Z,70.76
2022-09-02T21:06:12.270Z,74.87
2022-09-02T21:09:13.485Z,76.66
2022-09-02T21:12:12.941Z,74.33
2022-09-02T21:15:14.224Z,73.08
2022-09-02T21:18:15.960Z,71.36
2022-09-02T21:21:29.276Z,70.97
2022-09-02T21:24:24.696Z,72.90
2022-09-02T21:27:21.147Z,71.57
2022-09-02T21:30:22.913Z,79.54
2022-09-02T21:33:12.041Z,79.54
2022-09-02T21:35:59.149Z,78.56
2022-09-02T21:38:46.017Z,76.29
2022-09-02T21:41:42.981Z,78.34
2022-09-02T21:44:42.256Z,77.60
2022-09-02T21:47:35.352Z,85.12
2022-09-02T21:50:48.320Z,88.04
2022-09-02T21:53:53.612Z,81.08
2022-09-02T21:56:55.897Z,80.59
2022-09-02T21:59:49.379Z,79.97
2022-09-02T22:02:36.032Z,80.08
2022-09-02T22:06:10.062Z,78.07
2022-09-02T22:09:08.590Z,76.30
2022-09-02T22:12:11.143Z,76.32
2022-09-02T22:15:13.401Z,76.36
2022-09-02T22:18:14.018Z,77.05
2022-09-02T22:21:05.710Z,76.40
2022-09-02T22:23:54.525Z,80.03
2022-09-02T22:26:47.739Z,77.65
2022-09-02T22:29:40.118Z,77.14
2022-09-02T22:32:31.936Z,78.13
2022-09-02T22:35:31.466Z,85.24
2022-09-02T22:38:26.471Z,84.44
2022-09-02T22:41:29.284Z,95.53
2022-09-02T22:44:22.894Z,93.79
2022-09-02T22:47:27.792Z,89.71
2022-09-02T22:50:37.652Z,89.37
2022-09-02T22:53:24.128Z,95.47
2022-09-02T22:56:11.628Z,88.53
2022-09-02T22:59:24.272Z,87.74
2022-09-02T23:02:22.369Z,84.87
2022-09-02T23:05:37.808Z,84.23
2022-09-02T23:08:24.620Z,82.75
2022-09-02T23:11:16.558Z,81.80
2022-09-02T23:14:41.133Z,82.28
2022-09-02T23:17:34.843Z,81.93
2022-09-02T23:20:25.381Z,82.43
2022-09-02T23:23:26.985Z,84.40
2022-09-02T23:26:33.887Z,84.22
2022-09-02T23:29:28.737Z,96.16
2022-09-02T23:32:53.103Z,89.91
2022-09-02T23:35:59.883Z,87.32
2022-09-02T23:39:02.288Z,89.98
2022-09-02T23:41:48.905Z,93.09
2022-09-02T23:44:36.015Z,87.16
2022-09-02T23:47:37.770Z,86.67
2022-09-02T23:50:23.584Z,87.97
2022-09-02T23:53:13.968Z,86.76
2022-09-02T23:56:33.734Z,85.88
2022-09-02T23:59:26.236Z,83.55
